Time;durP1;ratioP1;P1;durP2;ratioP2;P2;SDS_P1;SDS_P2;PMS_P1;PMS_P2;Temp;Humidity;BMP_temperature;BMP_pressure;BME280_temperature;BME280_humidity;BME280_pressure;Samples;Min_cycle;Max_cycle;Signal;HPM_P1;HPM_P2
2023/12/18 07:01:24;;;;;;;3.20;2.13;;;6.50;99.90;7.90;102859.00;;;;6213969;22;1475371;-71
2023/12/18 07:03:56;;;;;;;3.37;2.87;;;6.40;99.90;8.40;102859.00;;;;6250294;22;20167;-71
2023/12/18 07:06:42;;;;;;;2.03;1.90;;;6.50;99.90;7.90;102871.00;;;;6278534;22;20137;-71
2023/12/18 07:09:19;;;;;;;1.17;1.13;;;6.50;99.90;8.70;102866.00;;;;6251249;22;20163;-71
2023/12/18 07:11:50;;;;;;;2.47;2.20;;;6.50;99.90;8.80;102886.00;;;;6227378;22;20313;-72
2023/12/18 07:14:25;;;;;;;0.90;0.90;;;6.60;99.90;8.90;102853.00;;;;6250973;22;20699;-71
2023/12/18 07:17:00;;;;;;;1.40;1.33;;;6.70;99.90;9.40;102808.00;;;;6278276;22;20186;-70
2023/12/18 07:19:40;;;;;;;6.93;3.77;;;6.80;99.90;8.50;102884.00;;;;6250026;22;20279;-72
2023/12/18 07:22:14;;;;;;;1.93;1.70;;;6.80;99.90;8.10;102877.00;;;;6250855;22;20599;-71
2023/12/18 07:24:53;;;;;;;9.80;4.73;;;6.50;99.90;8.30;102891.00;;;;6276951;22;20197;-72
2023/12/18 07:27:30;;;;;;;6.63;5.97;;;6.50;99.90;8.00;102873.00;;;;6251968;22;20194;-71
2023/12/18 07:30:16;;;;;;;2.10;2.00;;;6.40;99.90;8.20;102882.00;;;;6277891;22;20187;-70
2023/12/18 07:32:59;;;;;;;0.83;0.83;;;6.40;99.90;8.00;102883.00;;;;6277906;22;20197;-71
2023/12/18 07:35:48;;;;;;;1.13;1.13;;;6.40;99.90;8.80;102870.00;;;;6251227;22;20236;-71
2023/12/18 07:38:31;;;;;;;2.83;2.47;;;6.60;99.90;7.90;102880.00;;;;6226635;22;20157;-70
2023/12/18 07:41:05;;;;;;;0.97;0.97;;;6.40;99.90;8.50;102878.00;;;;6252137;22;20145;-71
2023/12/18 07:43:39;;;;;;;2.07;1.97;;;6.40;99.90;8.40;102851.00;;;;6277898;22;20175;-72
2023/12/18 07:46:28;;;;;;;1.10;1.10;;;6.50;99.90;8.70;102878.00;;;;6278274;22;20146;-72
2023/12/18 07:49:02;;;;;;;0.57;0.57;;;6.70;99.90;8.40;102876.00;;;;6250828;22;20459;-71
2023/12/18 07:52:15;;;;;;;0.97;0.97;;;6.60;99.90;9.10;102873.00;;;;6249981;22;20166;-71
2023/12/18 07:54:49;;;;;;;1.80;1.70;;;6.80;99.90;8.30;102873.00;;;;6194709;22;20490;-71
2023/12/18 07:57:32;;;;;;;2.80;2.03;;;6.70;99.90;8.40;102871.00;;;;6278205;22;20149;-71
2023/12/18 08:00:18;;;;;;;4.13;3.33;;;6.60;99.90;8.00;102859.00;;;;6275070;22;20177;-72
2023/12/18 08:03:05;;;;;;;1.97;1.80;;;6.40;99.90;7.70;102837.00;;;;6277639;22;20173;-71
2023/12/18 08:06:11;;;;;;;10.50;2.57;;;6.30;99.90;8.40;102866.00;;;;6225056;22;20197;-71
2023/12/18 08:08:46;;;;;;;0.53;0.53;;;6.50;99.90;9.00;102869.00;;;;6275330;22;20251;-71
2023/12/18 08:11:39;;;;;;;2.40;1.67;;;6.70;99.90;8.40;102870.00;;;;6278283;22;20142;-71
2023/12/18 08:14:20;;;;;;;0.23;0.23;;;6.70;99.90;9.20;102864.00;;;;6251578;22;20141;-71
2023/12/18 08:17:11;;;;;;;0.63;0.63;;;6.80;99.90;9.50;102860.00;;;;6277657;22;20141;-71
2023/12/18 08:19:59;;;;;;;2.10;2.00;;;7.00;99.90;9.00;102867.00;;;;6249743;22;20168;-71
2023/12/18 08:23:05;;;;;;;0.93;0.93;;;7.00;99.90;8.90;102869.00;;;;6226745;22;20171;-71
2023/12/18 08:26:06;;;;;;;2.33;2.13;;;7.00;99.90;8.90;102851.00;;;;6248652;22;20391;-71
2023/12/18 08:28:46;;;;;;;4.23;2.73;;;6.90;99.90;8.80;102871.00;;;;6222122;22;20157;-71
2023/12/18 08:31:21;;;;;;;3.27;1.87;;;6.90;99.90;8.20;102859.00;;;;6224293;22;20172;-71
2023/12/18 08:33:47;;;;;;;1.40;1.40;;;6.70;99.90;8.80;102814.00;;;;6277189;22;20194;-71
2023/12/18 08:36:30;;;;;;;3.07;2.73;;;6.70;99.90;8.80;102825.00;;;;6250427;22;20152;-71
2023/12/18 08:39:01;;;;;;;1.80;1.53;;;6.80;99.90;8.80;102856.00;;;;6225325;22;20242;-71
2023/12/18 08:41:52;;;;;;;1.90;1.80;;;6.80;99.90;9.50;102866.00;;;;6251045;22;20227;-71
2023/12/18 08:44:42;;;;;;;1.00;0.90;;;6.90;99.90;8.70;102850.00;;;;6250209;22;20157;-71
2023/12/18 08:47:13;;;;;;;5.93;2.87;;;6.90;99.90;8.80;102851.00;;;;6228840;22;20165;-71
2023/12/18 08:50:09;;;;;;;6.73;3.97;;;6.90;99.90;8.20;102856.00;;;;6250424;22;20196;-71
2023/12/18 08:53:01;;;;;;;3.47;3.10;;;6.70;99.90;8.50;102864.00;;;;6251380;22;20168;-71
2023/12/18 08:55:37;;;;;;;1.70;0.83;;;6.80;99.90;9.60;102863.00;;;;6228026;22;20497;-69
2023/12/18 08:58:21;;;;;;;2.77;1.93;;;7.00;99.90;8.70;102839.00;;;;6251252;22;20167;-71
2023/12/18 09:01:07;;;;;;;3.30;3.00;;;7.00;99.90;9.00;102870.00;;;;6276549;22;20223;-69
2023/12/18 09:04:18;;;;;;;0.87;0.87;;;7.10;99.90;8.90;102859.00;;;;6276989;22;20215;-72
2023/12/18 09:07:14;;;;;;;2.30;2.10;;;7.10;99.90;9.20;102854.00;;;;6250437;22;20140;-72
2023/12/18 09:10:00;;;;;;;1.10;1.03;;;7.10;99.90;8.60;102848.00;;;;6251113;22;20145;-72
2023/12/18 09:12:56;;;;;;;1.83;1.73;;;7.10;99.90;9.20;102844.00;;;;6223743;22;20157;-72
2023/12/18 09:15:48;;;;;;;3.83;3.47;;;7.10;99.90;9.20;102853.00;;;;6249438;22;20165;-71
2023/12/18 09:18:24;;;;;;;0.40;0.40;;;7.10;99.90;9.10;102853.00;;;;6224858;22;20160;-71
2023/12/18 09:21:13;;;;;;;6.07;3.23;;;7.10;99.90;8.60;102848.00;;;;6275923;22;20624;-71
2023/12/18 09:23:56;;;;;;;3.20;1.50;;;7.00;99.90;9.10;102844.00;;;;6249476;22;20192;-70
2023/12/18 09:26:38;;;;;;;0.80;0.60;;;7.10;99.90;8.50;102836.00;;;;6224718;22;20550;-72
2023/12/18 09:29:14;;;;;;;5.37;3.87;;;6.90;99.90;8.90;102837.00;;;;6250371;22;20234;-72
2023/12/18 09:31:58;;;;;;;0.97;0.97;;;7.00;99.90;9.30;102857.00;;;;6250079;22;20146;-71
2023/12/18 09:34:32;;;;;;;5.43;2.97;;;7.00;99.90;9.30;102848.00;;;;6276741;22;20166;-69
2023/12/18 09:37:32;;;;;;;2.30;2.20;;;7.20;99.90;9.10;102855.00;;;;6277042;22;20141;-73
2023/12/18 09:43:07;;;;;;;4.63;3.30;;;6.90;99.90;8.30;102850.00;;;;6228725;22;20193;-72
2023/12/18 09:46:09;;;;;;;0.90;0.90;;;6.80;99.90;8.40;102800.00;;;;6224244;22;20199;-71
2023/12/18 09:48:54;;;;;;;0.90;0.90;;;6.70;99.90;8.60;102842.00;;;;6249918;22;20145;-72
2023/12/18 09:51:47;;;;;;;0.97;0.97;;;6.70;99.90;8.50;102862.00;;;;6221445;22;20255;-72
2023/12/18 09:54:26;;;;;;;2.63;2.40;;;6.70;99.90;8.60;102851.00;;;;6249921;22;20156;-72
2023/12/18 09:57:03;;;;;;;0.30;0.30;;;6.80;99.90;8.70;102859.00;;;;6249717;22;20150;-72
2023/12/18 09:59:34;;;;;;;1.83;1.33;;;6.80;99.90;8.70;102860.00;;;;6248187;22;20165;-72
2023/12/18 10:02:27;;;;;;;3.17;2.27;;;6.80;99.90;8.30;102864.00;;;;6248554;22;20223;-74
2023/12/18 10:05:15;;;;;;;1.90;1.80;;;6.80;99.90;9.60;102861.00;;;;6247000;22;20196;-73
2023/12/18 10:08:16;;;;;;;1.33;1.27;;;7.10;99.90;8.70;102864.00;;;;6276290;22;20237;-74
2023/12/18 10:11:03;;;;;;;1.40;1.37;;;7.00;99.90;8.80;102853.00;;;;6249497;22;20159;-74
2023/12/18 10:13:29;;;;;;;2.10;1.93;;;6.90;99.90;8.00;102850.00;;;;6249296;22;20613;-74
2023/12/18 10:16:03;;;;;;;1.77;1.70;;;6.80;99.90;9.00;102858.00;;;;6248857;22;20567;-73
